Time;durP1;ratioP1;P1;durP2;ratioP2;P2;SDS_P1;SDS_P2;PMS_P1;PMS_P2;Temp;Humidity;BMP_temperature;BMP_pressure;BME280_temperature;BME280_humidity;BME280_pressure;Samples;Min_cycle;Max_cycle;Signal;HPM_P1;HPM_P2
2023/10/06 00:02:58;;;;;;;19.35;6.22;;;12.10;99.90;;;;;;5072645;28;20288;-49
2023/10/06 00:05:25;;;;;;;16.05;5.70;;;12.20;99.90;;;;;;5073002;28;20213;-49
2023/10/06 00:07:51;;;;;;;14.52;6.28;;;12.20;99.90;;;;;;5072647;28;20172;-49
2023/10/06 00:10:22;;;;;;;14.80;4.90;;;12.10;99.90;;;;;;5072788;28;20269;-49
2023/10/06 00:12:50;;;;;;;13.55;4.90;;;12.10;99.90;;;;;;5072550;28;20158;-48
2023/10/06 00:15:26;;;;;;;12.70;4.00;;;12.20;99.90;;;;;;5072485;28;20192;-48
2023/10/06 00:18:16;;;;;;;8.43;4.32;;;12.20;99.90;;;;;;5072473;28;20162;-48
2023/10/06 00:20:46;;;;;;;8.05;4.20;;;12.10;99.90;;;;;;5071695;28;20178;-49
2023/10/06 00:23:15;;;;;;;13.02;5.93;;;;;;;;;;5072337;28;20653;-49
2023/10/06 00:25:42;;;;;;;12.30;6.32;;;12.20;99.90;;;;;;5072324;28;20195;-49
2023/10/06 00:28:17;;;;;;;21.70;6.13;;;12.20;99.90;;;;;;5072534;28;20193;-49
2023/10/06 00:30:42;;;;;;;19.25;7.78;;;12.30;99.90;;;;;;5072478;28;20177;-49
2023/10/06 00:33:10;;;;;;;15.73;6.78;;;12.30;99.90;;;;;;5072171;28;20508;-49
2023/10/06 00:35:36;;;;;;;17.80;6.75;;;12.30;99.90;;;;;;5072244;28;20246;-48
2023/10/06 00:38:13;;;;;;;15.75;6.07;;;12.20;99.90;;;;;;5072134;28;20658;-49
2023/10/06 00:40:46;;;;;;;19.85;7.25;;;12.20;99.90;;;;;;5072314;28;20567;-49
2023/10/06 00:43:16;;;;;;;16.60;6.32;;;12.20;99.90;;;;;;5072243;28;20184;-49
2023/10/06 00:45:44;;;;;;;16.55;6.40;;;12.10;99.90;;;;;;5071677;28;20225;-49
2023/10/06 00:48:14;;;;;;;10.98;5.43;;;12.00;99.90;;;;;;5072121;28;20186;-48
2023/10/06 00:50:41;;;;;;;13.90;6.50;;;12.00;99.90;;;;;;5072135;28;20181;-49
2023/10/06 00:53:10;;;;;;;19.75;5.65;;;12.10;99.90;;;;;;5072143;28;20170;-49
2023/10/06 00:55:44;;;;;;;11.70;5.47;;;12.00;99.90;;;;;;5071790;28;20560;-48
2023/10/06 00:58:12;;;;;;;15.88;5.57;;;12.10;99.90;;;;;;5072108;28;20317;-48
2023/10/06 01:00:39;;;;;;;13.77;5.95;;;12.10;99.90;;;;;;5071808;28;20166;-48
2023/10/06 01:03:11;;;;;;;18.38;6.35;;;12.00;99.90;;;;;;5071824;28;20184;-49
2023/10/06 01:05:38;;;;;;;13.43;5.40;;;12.10;99.90;;;;;;5071752;28;20216;-48
2023/10/06 01:08:05;;;;;;;15.15;5.40;;;12.00;99.90;;;;;;5071692;28;20185;-48
2023/10/06 01:10:34;;;;;;;15.05;6.18;;;12.00;99.90;;;;;;5071666;28;20162;-48
2023/10/06 01:13:12;;;;;;;11.43;5.30;;;11.90;99.90;;;;;;5071848;28;20177;-49
2023/10/06 01:15:48;;;;;;;14.35;5.95;;;12.00;99.90;;;;;;5071572;28;20605;-49
2023/10/06 01:18:35;;;;;;;16.77;6.05;;;12.00;99.90;;;;;;5071579;28;20173;-48
2023/10/06 01:21:17;;;;;;;18.58;6.50;;;12.00;99.90;;;;;;5071844;28;20227;-48
2023/10/06 01:23:49;;;;;;;17.85;5.15;;;12.00;99.90;;;;;;5071512;28;20506;-48
2023/10/06 01:26:14;;;;;;;11.02;5.53;;;12.00;99.90;;;;;;5071767;28;20511;-48
2023/10/06 01:28:45;;;;;;;16.00;5.20;;;12.00;99.90;;;;;;5071555;28;20204;-48
2023/10/06 01:31:14;;;;;;;12.00;4.80;;;11.90;99.90;;;;;;5071672;28;20178;-48
2023/10/06 01:33:40;;;;;;;13.38;5.05;;;11.90;99.90;;;;;;5053421;28;20544;-48
2023/10/06 01:36:13;;;;;;;14.65;5.00;;;11.90;99.90;;;;;;5071324;28;20276;-48
2023/10/06 01:38:41;;;;;;;15.10;5.13;;;11.90;99.90;;;;;;5071605;28;20170;-49
2023/10/06 01:41:08;;;;;;;12.25;5.45;;;11.80;99.90;;;;;;5071218;28;20630;-48
2023/10/06 01:43:34;;;;;;;12.15;4.88;;;11.90;99.90;;;;;;5071294;28;20509;-48
2023/10/06 01:45:59;;;;;;;9.75;5.43;;;11.90;99.90;;;;;;5071205;28;20212;-48
2023/10/06 01:48:29;;;;;;;14.80;5.03;;;11.80;99.90;;;;;;5071630;28;20316;-48
2023/10/06 01:50:55;;;;;;;11.63;5.03;;;11.80;99.90;;;;;;5071894;28;20518;-48
2023/10/06 01:53:21;;;;;;;13.50;4.80;;;11.90;99.90;;;;;;5071188;28;20295;-48
2023/10/06 01:55:54;;;;;;;14.57;5.80;;;11.90;99.90;;;;;;5053280;28;20541;-49
2023/10/06 01:58:20;;;;;;;11.25;4.95;;;11.90;99.90;;;;;;5073604;28;20215;-50
2023/10/06 02:00:48;;;;;;;11.02;4.75;;;11.80;99.90;;;;;;5075189;28;20236;-49
2023/10/06 02:03:17;;;;;;;11.85;5.30;;;11.90;99.90;;;;;;5075075;28;20705;-49
2023/10/06 02:05:43;;;;;;;11.05;5.20;;;11.90;99.90;;;;;;5074995;28;20178;-48
2023/10/06 02:08:09;;;;;;;13.35;6.40;;;11.90;99.90;;;;;;5074978;28;20190;-48
2023/10/06 02:10:38;;;;;;;13.60;5.95;;;11.90;99.90;;;;;;5074935;28;20529;-48
2023/10/06 02:13:07;;;;;;;14.80;6.43;;;12.00;99.90;;;;;;5074968;28;20162;-48
2023/10/06 02:15:33;;;;;;;15.85;6.72;;;11.90;99.90;;;;;;5074762;28;20213;-48
2023/10/06 02:17:58;;;;;;;21.23;6.97;;;12.00;99.90;;;;;;5074984;28;20162;-48
2023/10/06 02:22:55;;;;;;;19.15;6.63;;;12.00;99.90;;;;;;5075007;28;20532;-48
2023/10/06 02:25:22;;;;;;;13.23;5.25;;;12.00;99.90;;;;;;5074590;28;20172;-50
2023/10/06 02:27:50;;;;;;;16.23;6.30;;;12.00;99.90;;;;;;5074783;28;20174;-48
2023/10/06 02:30:24;;;;;;;11.80;5.30;;;12.10;99.90;;;;;;5074514;28;20189;-47
2023/10/06 02:32:51;;;;;;;16.98;5.47;;;;;;;;;;5074393;28;20660;-48
2023/10/06 02:35:17;;;;;;;17.77;5.45;;;12.10;99.90;;;;;;5056586;28;20243;-48
2023/10/06 02:37:46;;;;;;;12.57;4.75;;;12.10;99.90;;;;;;5074633;28;20576;-47
2023/10/06 02:40:12;;;;;;;11.02;4.43;;;12.10;99.90;;;;;;5074593;28;20177;-47
2023/10/06 02:43:07;;;;;;;11.98;5.00;;;12.10;99.90;;;;;;5074357;28;20170;-48
2023/10/06 02:45:40;;;;;;;11.30;4.20;;;12.00;99.90;;;;;;5072992;28;20185;-48
2023/10/06 02:48:14;;;;;;;16.98;4.75;;;12.10;99.90;;;;;;5054296;28;20523;-48
2023/10/06 02:50:44;;;;;;;10.50;4.15;;;12.00;99.90;;;;;;5054156;28;20194;-48
2023/10/06 02:53:13;;;;;;;17.35;4.75;;;12.00;99.90;;;;;;5054149;28;20192;-47
2023/10/06 02:55:43;;;;;;;18.20;5.00;;;12.00;99.90;;;;;;5054037;28;20236;-47
2023/10/06 02:58:09;;;;;;;7.82;4.22;;;12.00;99.90;;;;;;5054119;28;20163;-47
2023/10/06 03:00:36;;;;;;;11.63;4.13;;;12.00;99.90;;;;;;5054289;28;20175;-48
2023/10/06 03:03:18;;;;;;;15.30;4.68;;;12.00;99.90;;;;;;5054526;28;20237;-48
2023/10/06 03:05:49;;;;;;;9.30;3.95;;;11.90;99.90;;;;;;5053811;28;20260;-47
2023/10/06 03:08:20;;;;;;;10.90;4.75;;;11.90;99.90;;;;;;5053564;28;20232;-48
2023/10/06 03:10:49;;;;;;;11.48;3.95;;;11.90;99.90;;;;;;5053734;28;20633;-48
2023/10/06 03:13:16;;;;;;;10.82;3.50;;;11.90;99.90;;;;;;5053785;28;20618;-48
2023/10/06 03:15:46;;;;;;;11.18;3.67;;;12.00;99.90;;;;;;5053593;28;20755;-48
2023/10/06 03:18:16;;;;;;;8.13;3.55;;;12.00;99.90;;;;;;5053726;28;20155;-48
2023/10/06 03:20:48;;;;;;;8.27;3.95;;;12.10;99.90;;;;;;5053646;28;20166;-48
2023/10/06 03:23:26;;;;;;;9.10;2.97;;;12.00;99.90;;;;;;5053812;28;20178;-48
2023/10/06 03:25:56;;;;;;;10.32;3.10;;;12.00;99.90;;;;;;5054215;28;20194;-48
2023/10/06 03:28:38;;;;;;;8.75;3.50;;;12.00;99.90;;;;;;5053804;28;20175;-48
2023/10/06 03:31:23;;;;;;;9.57;3.30;;;12.00;99.90;;;;;;5053685;28;20588;-48
2023/10/06 03:33:50;;;;;;;11.75;3.58;;;12.00;99.90;;;;;;5053369;28;20249;-48
2023/10/06 03:36:16;;;;;;;10.15;3.42;;;11.90;99.90;;;;;;5053206;28;20236;-47
2023/10/06 03:38:55;;;;;;;5.95;3.30;;;12.00;99.90;;;;;;5053597;28;20178;-48
2023/10/06 03:41:25;;;;;;;8.32;4.03;;;12.00;99.90;;;;;;5053191;28;20701;-48
2023/10/06 03:43:53;;;;;;;6.97;3.55;;;12.00;99.90;;;;;;5053442;28;20224;-48
2023/10/06 03:46:19;;;;;;;11.00;3.63;;;11.90;99.90;;;;;;5052975;28;20206;-48
2023/10/06 03:48:48;;;;;;;10.23;4.20;;;11.90;99.90;;;;;;5053021;28;20550;-48
2023/10/06 03:51:15;;;;;;;16.15;5.15;;;11.90;99.90;;;;;;5053007;28;20536;-49
2023/10/06 03:53:41;;;;;;;13.85;5.30;;;11.90;99.90;;;;;;5052932;28;20174;-48
2023/10/06 03:56:08;;;;;;;14.13;5.30;;;11.90;99.90;;;;;;5052922;28;20237;-48
2023/10/06 03:58:34;;;;;;;22.27;7.10;;;11.90;99.90;;;;;;5053125;28;20283;-48
2023/10/06 04:01:07;;;;;;;10.18;5.40;;;11.90;99.90;;;;;;5052856;28;20524;-48
2023/10/06 04:03:33;;;;;;;14.40;4.90;;;11.90;99.90;;;;;;5052817;28;20176;-49
2023/10/06 04:05:59;;;;;;;9.85;4.28;;;11.90;99.90;;;;;;5034749;28;20170;-50
2023/10/06 04:08:24;;;;;;;6.60;3.50;;;11.90;99.90;;;;;;5053134;28;20169;-48
2023/10/06 04:11:00;;;;;;;9.20;4.05;;;11.80;99.90;;;;;;5052666;28;20563;-48
2023/10/06 04:13:26;;;;;;;10.90;4.30;;;11.90;99.90;;;;;;5053318;28;20257;-48
2023/10/06 04:15:52;;;;;;;9.65;3.92;;;11.80;99.90;;;;;;5053147;28;20298;-48
2023/10/06 04:18:21;;;;;;;10.63;4.55;;;11.80;99.90;;;;;;5052373;28;20163;-48
2023/10/06 04:20:48;;;;;;;11.45;3.58;;;11.80;99.90;;;;;;5051860;28;20166;-48
2023/10/06 04:23:16;;;;;;;9.95;3.67;;;11.80;99.90;;;;;;5052353;28;20297;-48
2023/10/06 04:25:42;;;;;;;8.48;3.72;;;11.80;99.90;;;;;;5052484;28;20574;-48
2023/10/06 04:28:16;;;;;;;6.53;3.05;;;11.80;99.90;;;;;;5052096;28;20166;-49
2023/10/06 04:30:43;;;;;;;9.40;3.72;;;11.70;99.90;;;;;;5052494;28;20198;-48
2023/10/06 04:33:13;;;;;;;10.43;4.20;;;11.70;99.90;;;;;;5034532;28;20579;-48
2023/10/06 04:35:52;;;;;;;12.05;4.38;;;11.70;99.90;;;;;;5052287;28;20205;-48
2023/10/06 04:38:19;;;;;;;11.55;5.10;;;11.70;99.90;;;;;;5052134;28;20166;-48
2023/10/06 04:40:46;;;;;;;23.08;5.50;;;11.70;99.90;;;;;;5034633;28;20163;-48
2023/10/06 04:43:17;;;;;;;21.08;6.47;;;11.60;99.90;;;;;;5052045;28;20189;-48
2023/10/06 04:45:47;;;;;;;10.93;5.00;;;11.50;99.90;;;;;;5051949;28;20222;-48
2023/10/06 04:48:14;;;;;;;14.73;5.60;;;11.40;99.90;;;;;;5052249;28;20196;-48
2023/10/06 04:50:42;;;;;;;8.75;4.20;;;11.50;99.90;;;;;;5052152;28;20216;-49
2023/10/06 04:53:08;;;;;;;14.93;6.00;;;11.50;99.90;;;;;;5052013;28;20167;-48
2023/10/06 04:55:37;;;;;;;11.52;5.63;;;11.30;99.90;;;;;;5051870;28;20213;-48
2023/10/06 04:58:13;;;;;;;14.77;6.70;;;11.40;99.90;;;;;;5052087;28;20190;-48
2023/10/06 05:00:39;;;;;;;13.13;5.15;;;11.40;99.90;;;;;;5051882;28;20244;-49
2023/10/06 05:03:06;;;;;;;17.02;6.70;;;11.30;99.90;;;;;;5033986;28;20575;-49
2023/10/06 05:05:38;;;;;;;11.27;4.18;;;11.30;99.90;;;;;;5050975;28;20178;-48
2023/10/06 05:08:05;;;;;;;7.95;4.13;;;11.30;99.90;;;;;;5050291;28;20710;-52
2023/10/06 05:10:31;;;;;;;12.27;5.90;;;11.30;99.90;;;;;;5050372;28;20171;-49
2023/10/06 05:13:02;;;;;;;7.60;4.65;;;11.20;99.90;;;;;;5050247;28;20159;-49
2023/10/06 05:15:30;;;;;;;11.48;5.22;;;11.30;99.90;;;;;;5050086;28;20201;-49
2023/10/06 05:17:56;;;;;;;10.00;5.85;;;11.30;99.90;;;;;;5050875;28;20568;-49
2023/10/06 05:20:32;;;;;;;9.32;4.35;;;11.30;99.90;;;;;;5050887;28;20648;-49
2023/10/06 05:23:09;;;;;;;10.10;4.60;;;11.30;99.90;;;;;;5051238;28;20177;-50
2023/10/06 05:25:36;;;;;;;16.85;4.88;;;11.20;99.90;;;;;;5051459;28;20525;-49
2023/10/06 05:28:02;;;;;;;20.23;7.13;;;11.20;99.90;;;;;;5051217;28;20680;-49
2023/10/06 05:30:28;;;;;;;15.10;5.68;;;11.30;99.90;;;;;;5051344;28;20171;-50
2023/10/06 05:32:58;;;;;;;23.73;6.35;;;11.20;99.90;;;;;;5050897;28;20170;-48
2023/10/06 05:35:27;;;;;;;16.45;6.68;;;11.20;99.90;;;;;;5051940;28;20210;-49
2023/10/06 05:37:53;;;;;;;19.02;9.70;;;11.30;99.90;;;;;;5051647;28;20155;-48
2023/10/06 05:40:20;;;;;;;16.42;7.88;;;11.30;99.90;;;;;;5051259;28;20258;-48
2023/10/06 05:42:49;;;;;;;13.38;6.50;;;11.30;99.90;;;;;;5051510;28;20651;-48
2023/10/06 05:45:18;;;;;;;12.55;5.72;;;11.30;99.90;;;;;;5051155;28;20560;-49
2023/10/06 05:47:51;;;;;;;15.40;5.90;;;11.30;99.90;;;;;;5051197;28;20177;-48
2023/10/06 05:50:21;;;;;;;10.23;6.03;;;11.30;99.90;;;;;;5051193;28;20163;-48
2023/10/06 05:52:51;;;;;;;14.18;6.18;;;;;;;;;;5051065;28;20202;-48
2023/10/06 05:55:22;;;;;;;13.27;5.35;;;11.40;99.90;;;;;;5051260;28;20293;-48
2023/10/06 05:57:55;;;;;;;10.15;4.72;;;11.40;99.90;;;;;;5051322;28;20198;-48
2023/10/06 06:00:29;;;;;;;12.23;5.65;;;11.40;99.90;;;;;;5051812;28;20246;-48
2023/10/06 06:02:59;;;;;;;10.20;5.05;;;11.30;99.90;;;;;;5051393;28;20171;-48
2023/10/06 06:05:29;;;;;;;13.52;5.60;;;11.40;99.90;;;;;;5051633;28;20592;-48
2023/10/06 06:07:59;;;;;;;7.72;4.18;;;11.50;99.90;;;;;;5051459;28;20233;-48
2023/10/06 06:10:28;;;;;;;9.75;4.72;;;11.50;99.90;;;;;;5051643;28;20183;-49
2023/10/06 06:12:55;;;;;;;12.00;5.50;;;11.50;99.90;;;;;;5051307;28;20202;-49
2023/10/06 06:15:21;;;;;;;12.82;4.70;;;11.60;99.90;;;;;;5051196;28;20195;-49
2023/10/06 06:17:49;;;;;;;12.38;5.18;;;11.60;99.90;;;;;;5051219;28;20190;-49
2023/10/06 06:20:18;;;;;;;9.88;4.90;;;11.60;99.90;;;;;;5051794;28;20170;-49
2023/10/06 06:22:55;;;;;;;9.23;4.30;;;11.60;99.90;;;;;;5033953;28;20698;-48
2023/10/06 06:25:22;;;;;;;9.73;5.50;;;11.70;99.90;;;;;;5052194;28;20578;-50
2023/10/06 06:27:49;;;;;;;10.40;4.85;;;11.80;99.90;;;;;;5051908;28;20166;-49
2023/10/06 06:30:18;;;;;;;11.18;5.03;;;11.90;99.90;;;;;;5034000;28;20177;-49
2023/10/06 06:32:52;;;;;;;11.35;4.70;;;11.90;99.90;;;;;;5051482;28;20175;-50
2023/10/06 06:35:23;;;;;;;9.50;3.88;;;11.90;99.90;;;;;;5033833;28;20234;-48
2023/10/06 06:37:51;;;;;;;8.68;4.20;;;11.90;99.90;;;;;;5051851;28;20163;-48
2023/10/06 06:40:19;;;;;;;10.27;4.00;;;12.00;99.90;;;;;;5051864;28;20171;-48
2023/10/06 06:42:51;;;;;;;9.43;3.97;;;12.10;99.90;;;;;;5033675;28;20162;-49
2023/10/06 06:45:17;;;;;;;10.88;4.65;;;12.10;99.90;;;;;;5054952;28;20170;-49
2023/10/06 06:47:46;;;;;;;9.85;4.90;;;12.30;99.90;;;;;;5055092;28;20183;-49
2023/10/06 06:50:15;;;;;;;9.75;4.78;;;12.30;99.90;;;;;;5037030;28;20539;-50
2023/10/06 06:52:42;;;;;;;14.50;5.60;;;12.50;99.90;;;;;;5037012;28;20181;-48
2023/10/06 06:55:20;;;;;;;22.13;7.25;;;12.60;99.90;;;;;;5054454;28;20201;-50
2023/10/06 06:57:49;;;;;;;20.15;6.10;;;12.70;99.90;;;;;;5037154;28;20660;-49
2023/10/06 07:00:22;;;;;;;19.15;6.03;;;12.80;99.90;;;;;;5036770;28;20174;-49
2023/10/06 07:02:51;;;;;;;22.92;7.93;;;13.00;99.90;;;;;;5054847;28;20169;-50
2023/10/06 07:05:18;;;;;;;20.63;7.40;;;13.20;99.90;;;;;;5036933;28;20170;-48
2023/10/06 07:07:45;;;;;;;18.00;7.50;;;13.40;99.90;;;;;;5054368;28;20223;-48
2023/10/06 07:10:14;;;;;;;18.63;6.60;;;13.60;99.90;;;;;;5054603;28;20201;-49
2023/10/06 07:12:43;;;;;;;16.33;6.22;;;13.70;99.90;;;;;;5054666;28;20526;-49
2023/10/06 07:15:15;;;;;;;18.75;5.80;;;13.80;99.90;;;;;;5054357;28;20207;-50
2023/10/06 07:17:45;;;;;;;19.27;6.50;;;13.90;99.90;;;;;;5054154;28;20166;-49
2023/10/06 07:20:16;;;;;;;23.15;6.72;;;13.90;99.90;;;;;;5036352;28;20546;-49
2023/10/06 07:22:47;;;;;;;15.85;5.38;;;13.90;99.90;;;;;;5054251;28;20190;-48
2023/10/06 07:25:15;;;;;;;14.80;6.25;;;13.80;99.90;;;;;;5054067;28;20171;-48
2023/10/06 07:27:43;;;;;;;19.45;6.60;;;13.80;99.90;;;;;;5036338;28;20595;-49
2023/10/06 07:30:11;;;;;;;15.80;5.88;;;13.80;99.90;;;;;;5054151;28;20332;-51
2023/10/06 07:32:42;;;;;;;13.85;5.55;;;13.80;99.90;;;;;;5036298;28;20179;-48
2023/10/06 07:35:13;;;;;;;13.63;5.25;;;13.80;99.90;;;;;;5036092;28;20267;-50
2023/10/06 07:37:43;;;;;;;13.93;4.97;;;13.80;99.90;;;;;;5053901;28;20171;-48
2023/10/06 07:40:13;;;;;;;18.17;5.78;;;13.90;99.90;;;;;;5053728;28;20163;-47
2023/10/06 07:42:52;;;;;;;15.57;5.80;;;13.90;99.90;;;;;;5053710;28;20159;-50
2023/10/06 07:45:20;;;;;;;16.10;6.13;;;14.00;99.90;;;;;;5053609;28;20271;-49
2023/10/06 07:47:46;;;;;;;10.77;5.15;;;14.10;99.90;;;;;;5054005;28;20532;-49
2023/10/06 07:50:14;;;;;;;20.58;4.97;;;14.20;99.90;;;;;;5053569;28;20650;-49
2023/10/06 07:52:44;;;;;;;11.35;4.50;;;14.20;99.90;;;;;;5053445;28;20170;-49
2023/10/06 07:55:11;;;;;;;8.73;3.58;;;14.20;99.90;;;;;;5052533;28;20612;-49
2023/10/06 07:57:48;;;;;;;9.88;3.75;;;14.20;99.90;;;;;;5053306;28;20182;-49
2023/10/06 08:02:56;;;;;;;6.97;3.10;;;14.20;99.90;;;;;;5053619;28;20576;-48
2023/10/06 08:05:23;;;;;;;9.32;3.58;;;14.30;99.90;;;;;;5053513;28;20565;-49
2023/10/06 08:07:49;;;;;;;8.35;3.30;;;14.40;99.90;;;;;;5052996;28;20158;-48
2023/10/06 08:10:19;;;;;;;6.43;2.95;;;14.40;99.90;;;;;;5052976;28;20491;-49
2023/10/06 08:12:46;;;;;;;8.40;2.75;;;14.50;99.90;;;;;;5052797;28;20171;-48
2023/10/06 08:15:17;;;;;;;10.18;3.40;;;14.60;99.90;;;;;;5052492;28;20269;-48
2023/10/06 08:17:45;;;;;;;6.93;2.92;;;14.60;99.90;;;;;;5052803;28;20270;-51
2023/10/06 08:20:12;;;;;;;10.63;3.53;;;14.60;99.90;;;;;;5052752;28;20168;-48
2023/10/06 08:22:38;;;;;;;7.47;3.30;;;14.80;99.90;;;;;;5052721;28;20171;-49
2023/10/06 08:25:05;;;;;;;7.38;3.17;;;14.90;99.90;;;;;;5052402;28;20167;-48
2023/10/06 08:27:34;;;;;;;8.23;2.70;;;15.00;99.90;;;;;;5052392;28;20253;-48
2023/10/06 08:30:00;;;;;;;8.60;3.42;;;15.10;99.90;;;;;;5052426;28;20526;-48
2023/10/06 08:32:26;;;;;;;9.55;2.70;;;;;;;;;;5052302;28;20166;-48
2023/10/06 08:34:51;;;;;;;9.82;2.92;;;15.20;99.90;;;;;;5052531;28;20178;-48
2023/10/06 08:37:19;;;;;;;9.20;3.00;;;15.40;99.90;;;;;;5052161;28;20166;-48
2023/10/06 08:39:46;;;;;;;9.38;3.25;;;15.70;99.90;;;;;;5052443;28;20175;-51
2023/10/06 08:42:15;;;;;;;9.43;2.95;;;15.80;99.90;;;;;;5052213;28;20158;-50
2023/10/06 08:44:41;;;;;;;7.45;2.78;;;15.90;99.90;;;;;;5052151;28;20525;-51
2023/10/06 08:47:13;;;;;;;6.80;2.90;;;16.00;99.90;;;;;;5051867;28;20234;-50
2023/10/06 08:49:43;;;;;;;9.43;3.30;;;16.00;99.90;;;;;;5051953;28;20185;-51
2023/10/06 08:52:14;;;;;;;6.57;2.72;;;16.10;99.90;;;;;;5034284;28;20166;-50
2023/10/06 08:54:43;;;;;;;8.30;3.00;;;16.20;99.90;;;;;;5052063;28;20185;-50
2023/10/06 08:57:12;;;;;;;9.18;3.33;;;16.40;99.90;;;;;;5051791;28;20167;-50
2023/10/06 08:59:39;;;;;;;8.90;3.60;;;16.40;99.90;;;;;;5051800;28;20579;-50
2023/10/06 09:02:05;;;;;;;7.78;2.78;;;16.60;99.90;;;;;;5051933;28;20175;-51
2023/10/06 09:04:35;;;;;;;5.70;2.75;;;16.70;99.90;;;;;;5051690;28;20555;-49
2023/10/06 09:07:12;;;;;;;8.55;3.20;;;16.70;99.90;;;;;;5051359;28;20175;-49
2023/10/06 09:09:40;;;;;;;10.52;3.00;;;16.90;99.90;;;;;;5051479;28;20610;-49
2023/10/06 09:12:07;;;;;;;6.38;2.83;;;16.90;99.90;;;;;;5051588;28;20181;-51
2023/10/06 09:14:33;;;;;;;9.30;3.13;;;17.00;99.90;;;;;;5051788;28;20189;-51
2023/10/06 09:17:01;;;;;;;8.65;2.70;;;17.10;99.90;;;;;;5051675;28;20665;-50
2023/10/06 09:19:46;;;;;;;10.18;3.33;;;17.00;99.90;;;;;;5051657;28;20177;-50
2023/10/06 09:22:12;;;;;;;7.68;3.42;;;17.20;99.90;;;;;;5051654;28;20177;-50
2023/10/06 09:24:39;;;;;;;8.20;3.53;;;17.20;99.90;;;;;;5051349;28;20167;-50
2023/10/06 09:27:20;;;;;;;9.88;2.88;;;17.30;99.90;;;;;;5051444;28;20499;-49
2023/10/06 09:29:45;;;;;;;9.32;3.00;;;17.30;99.90;;;;;;5051309;28;20170;-51
2023/10/06 09:32:29;;;;;;;5.15;2.95;;;17.30;99.90;;;;;;5051362;28;20173;-49
2023/10/06 09:34:57;;;;;;;12.40;3.25;;;17.40;99.90;;;;;;5051923;28;20163;-50
2023/10/06 09:37:24;;;;;;;6.70;2.75;;;17.60;99.90;;;;;;5051573;28;20520;-50
2023/10/06 09:40:15;;;;;;;8.30;3.58;;;17.60;99.90;;;;;;5051534;28;20170;-49
2023/10/06 09:42:46;;;;;;;8.10;3.33;;;17.50;99.90;;;;;;5051429;28;20638;-48
2023/10/06 09:45:15;;;;;;;10.68;3.63;;;17.50;99.90;;;;;;5051042;28;20169;-48
2023/10/06 09:47:50;;;;;;;8.43;3.38;;;17.60;99.90;;;;;;5051426;28;20182;-49
2023/10/06 09:50:19;;;;;;;7.95;3.45;;;17.70;99.90;;;;;;5051171;28;20531;-48
2023/10/06 09:52:47;;;;;;;9.65;3.45;;;18.10;99.90;;;;;;5051426;28;20174;-48
2023/10/06 09:55:15;;;;;;;11.65;3.55;;;18.10;99.90;;;;;;5051058;28;20306;-50
2023/10/06 09:57:43;;;;;;;14.57;3.33;;;18.10;99.90;;;;;;5051385;28;20220;-48
2023/10/06 10:00:15;;;;;;;12.65;3.92;;;18.00;99.90;;;;;;5051359;28;20175;-48
2023/10/06 10:02:45;;;;;;;9.35;3.45;;;18.20;99.90;;;;;;5051147;28;20159;-49
2023/10/06 10:05:18;;;;;;;11.52;3.58;;;18.00;99.90;;;;;;5050998;28;20163;-48
2023/10/06 10:07:46;;;;;;;10.48;3.20;;;17.90;99.90;;;;;;5050929;28;20169;-48
2023/10/06 10:10:13;;;;;;;8.02;2.75;;;17.80;99.90;;;;;;5050913;28;20167;-48
2023/10/06 10:13:19;;;;;;;7.97;3.35;;;17.80;99.90;;;;;;5051012;28;20166;-51
2023/10/06 10:16:25;;;;;;;7.30;3.13;;;17.80;99.90;;;;;;4989556;28;20622;-47
2023/10/06 10:19:00;;;;;;;9.85;3.03;;;17.90;99.90;;;;;;4991627;28;20252;-48
2023/10/06 10:21:26;;;;;;;9.93;3.75;;;17.90;99.90;;;;;;5043554;28;20186;-47
2023/10/06 10:23:55;;;;;;;7.63;2.75;;;18.00;99.90;;;;;;5055196;28;20181;-47
2023/10/06 10:26:28;;;;;;;7.63;2.92;;;18.10;99.90;;;;;;5055370;28;20258;-47
2023/10/06 10:29:17;;;;;;;5.93;2.67;;;18.30;99.90;;;;;;5055034;28;20163;-48
2023/10/06 10:31:52;;;;;;;9.13;3.20;;;18.40;99.90;;;;;;5054565;28;20174;-48
2023/10/06 10:34:21;;;;;;;11.02;2.38;;;18.50;99.90;;;;;;5054530;28;20245;-49
2023/10/06 10:36:56;;;;;;;7.03;2.83;;;18.50;99.90;;;;;;5037454;28;20296;-47
2023/10/06 10:39:22;;;;;;;6.07;3.13;;;18.60;99.90;;;;;;5054854;28;20171;-47
2023/10/06 10:41:47;;;;;;;4.90;2.33;;;18.60;99.90;;;;;;5054632;28;20197;-47
2023/10/06 10:44:17;;;;;;;7.07;2.80;;;18.70;99.90;;;;;;5054275;28;20169;-51
2023/10/06 10:46:48;;;;;;;7.78;2.80;;;18.80;99.90;;;;;;5036311;28;20460;-48
2023/10/06 10:49:19;;;;;;;8.88;3.00;;;18.80;99.90;;;;;;5054165;28;20163;-48
2023/10/06 10:51:55;;;;;;;10.70;3.30;;;18.90;99.90;;;;;;5054373;28;20179;-48
2023/10/06 10:54:23;;;;;;;6.72;2.70;;;18.90;99.90;;;;;;5054806;28;20166;-48
2023/10/06 10:56:51;;;;;;;4.75;3.00;;;19.00;99.90;;;;;;5054008;28;20225;-48
2023/10/06 10:59:18;;;;;;;9.88;3.35;;;19.00;99.90;;;;;;5053934;28;20577;-48
2023/10/06 11:01:51;;;;;;;6.47;2.92;;;18.90;99.90;;;;;;5053980;28;20601;-47
2023/10/06 11:04:24;;;;;;;7.43;2.80;;;19.10;99.90;;;;;;5054140;28;20526;-49
2023/10/06 11:06:51;;;;;;;6.53;2.90;;;19.20;99.90;;;;;;5054267;28;20660;-50
2023/10/06 11:09:28;;;;;;;11.50;2.70;;;19.20;99.90;;;;;;5053819;28;20702;-50
2023/10/06 11:11:58;;;;;;;4.38;2.55;;;19.30;99.90;;;;;;5054408;28;20166;-48
2023/10/06 11:14:26;;;;;;;6.13;2.80;;;19.30;99.90;;;;;;5054169;28;20657;-47
2023/10/06 11:16:53;;;;;;;6.18;3.20;;;19.30;99.90;;;;;;5054272;28;20214;-48
2023/10/06 11:19:19;;;;;;;8.10;2.83;;;19.40;99.90;;;;;;5053668;28;20167;-50
2023/10/06 11:21:48;;;;;;;5.50;3.10;;;19.20;99.90;;;;;;5053888;28;20636;-51
2023/10/06 11:24:26;;;;;;;7.95;3.25;;;19.40;99.90;;;;;;5053809;28;20216;-49
2023/10/06 11:26:52;;;;;;;14.02;3.30;;;19.40;99.90;;;;;;5053881;28;20171;-49
2023/10/06 11:29:30;;;;;;;10.48;3.35;;;19.60;99.90;;;;;;5053438;28;20174;-48
2023/10/06 11:31:59;;;;;;;10.63;3.00;;;19.70;99.90;;;;;;5053400;28;20185;-48
2023/10/06 11:34:24;;;;;;;5.65;2.78;;;19.70;99.90;;;;;;5035934;28;20205;-48
2023/10/06 11:36:57;;;;;;;7.68;2.72;;;19.60;99.90;;;;;;5053653;28;20202;-50
2023/10/06 11:39:27;;;;;;;9.18;3.22;;;19.40;99.90;;;;;;5053773;28;20159;-51
2023/10/06 11:41:55;;;;;;;8.73;2.80;;;19.40;99.90;;;;;;5053620;28;20202;-47
2023/10/06 11:44:21;;;;;;;8.02;3.03;;;;;;;;;;5053530;28;20163;-48
2023/10/06 11:46:52;;;;;;;5.70;2.90;;;19.60;99.90;;;;;;5053029;28;20230;-47
2023/10/06 11:49:19;;;;;;;7.40;3.20;;;19.60;99.90;;;;;;5052998;28;20649;-47
2023/10/06 11:51:45;;;;;;;6.68;2.85;;;19.70;99.90;;;;;;5053143;28;21078;-47
2023/10/06 11:54:10;;;;;;;10.43;3.03;;;19.80;99.90;;;;;;5053081;28;20178;-51
2023/10/06 11:56:48;;;;;;;7.75;3.05;;;19.90;99.90;;;;;;5052947;28;20198;-51
2023/10/06 11:59:24;;;;;;;7.00;2.83;;;19.80;99.90;;;;;;5053173;28;20167;-50
2023/10/06 12:01:49;;;;;;;6.43;3.10;;;19.90;99.90;;;;;;5053178;28;20170;-49
2023/10/06 12:04:30;;;;;;;5.70;2.53;;;19.90;99.90;;;;;;5053054;28;20178;-51
2023/10/06 12:06:56;;;;;;;7.10;3.35;;;19.80;99.90;;;;;;5052779;28;20574;-49
2023/10/06 12:09:29;;;;;;;4.30;2.63;;;19.80;99.90;;;;;;5053388;28;20178;-48
2023/10/06 12:11:57;;;;;;;6.65;3.20;;;19.70;99.90;;;;;;5052725;28;20163;-48
2023/10/06 12:14:24;;;;;;;6.22;3.00;;;19.80;99.90;;;;;;5053279;28;20175;-48
2023/10/06 12:16:50;;;;;;;8.65;3.10;;;19.80;99.90;;;;;;5053178;28;20215;-49
2023/10/06 12:19:15;;;;;;;7.43;3.20;;;19.90;99.90;;;;;;5052508;28;20158;-49
2023/10/06 12:21:41;;;;;;;9.57;2.83;;;20.00;99.90;;;;;;5052768;28;20261;-51
2023/10/06 12:24:11;;;;;;;5.78;2.97;;;20.00;99.90;;;;;;5052339;28;20174;-50
2023/10/06 12:26:40;;;;;;;5.13;2.60;;;19.90;99.90;;;;;;5052407;28;20259;-51
2023/10/06 12:29:06;;;;;;;5.22;2.38;;;20.00;99.90;;;;;;5034404;28;20269;-48
2023/10/06 12:31:32;;;;;;;6.35;2.70;;;19.90;99.90;;;;;;5052390;28;20208;-50
2023/10/06 12:34:01;;;;;;;5.40;2.58;;;19.70;99.90;;;;;;5052384;28;20170;-51
2023/10/06 12:36:26;;;;;;;7.68;3.08;;;19.50;99.90;;;;;;5052232;28;20236;-51
2023/10/06 12:38:52;;;;;;;9.65;2.75;;;19.60;99.90;;;;;;5052594;28;20162;-50
2023/10/06 12:41:18;;;;;;;6.50;3.00;;;;;;;;;;5051628;28;20262;-51
2023/10/06 12:43:47;;;;;;;7.80;3.22;;;20.10;99.90;;;;;;5051975;28;20182;-51
2023/10/06 12:46:13;;;;;;;5.45;2.90;;;20.10;99.90;;;;;;5052027;28;20227;-50
2023/10/06 12:48:39;;;;;;;6.82;3.17;;;20.10;99.90;;;;;;5051902;28;20166;-50
2023/10/06 12:51:11;;;;;;;7.53;3.10;;;20.30;99.90;;;;;;5034093;28;20176;-48
2023/10/06 12:53:39;;;;;;;6.00;2.75;;;20.30;99.90;;;;;;5051814;28;20668;-50
2023/10/06 12:56:04;;;;;;;9.88;3.38;;;20.30;99.90;;;;;;5051997;28;20305;-47
2023/10/06 12:58:30;;;;;;;10.45;3.08;;;20.20;99.90;;;;;;5051916;28;20198;-47
2023/10/06 13:00:56;;;;;;;7.45;3.30;;;20.20;99.90;;;;;;5051827;28;20188;-47
2023/10/06 13:03:21;;;;;;;7.75;3.22;;;20.10;99.90;;;;;;5052207;28;20159;-47